sensor_id;sensor_type;location;lat;lon;timestamp;P1;durP1;ratioP1;P2;durP2;ratioP2
32697;SDS011;19087;51.062;3.754;2022-09-09T00:00:23;8.88;;;2.33;;
32697;SDS011;19087;51.062;3.754;2022-09-09T00:02:53;10.20;;;2.03;;
32697;SDS011;19087;51.062;3.754;2022-09-09T00:05:39;6.03;;;1.58;;
32697;SDS011;19087;51.062;3.754;2022-09-09T00:08:19;7.20;;;1.50;;
32697;SDS011;19087;51.062;3.754;2022-09-09T00:11:09;10.63;;;2.28;;
32697;SDS011;19087;51.062;3.754;2022-09-09T00:13:37;6.20;;;1.83;;
32697;SDS011;19087;51.062;3.754;2022-09-09T00:18:49;9.80;;;2.00;;
32697;SDS011;19087;51.062;3.754;2022-09-09T00:21:33;9.93;;;2.30;;
32697;SDS011;19087;51.062;3.754;2022-09-09T00:24:04;8.68;;;1.70;;
32697;SDS011;19087;51.062;3.754;2022-09-09T00:26:40;4.53;;;1.80;;
32697;SDS011;19087;51.062;3.754;2022-09-09T00:31:37;7.63;;;1.95;;
32697;SDS011;19087;51.062;3.754;2022-09-09T00:36:38;9.63;;;1.83;;
32697;SDS011;19087;51.062;3.754;2022-09-09T00:39:05;10.25;;;1.85;;
32697;SDS011;19087;51.062;3.754;2022-09-09T00:41:50;6.13;;;1.98;;
32697;SDS011;19087;51.062;3.754;2022-09-09T00:44:41;5.72;;;1.52;;
32697;SDS011;19087;51.062;3.754;2022-09-09T00:47:33;5.45;;;1.27;;
32697;SDS011;19087;51.062;3.754;2022-09-09T00:50:29;9.25;;;2.00;;
32697;SDS011;19087;51.062;3.754;2022-09-09T00:53:19;8.43;;;1.73;;
32697;SDS011;19087;51.062;3.754;2022-09-09T00:55:49;6.72;;;1.60;;
32697;SDS011;19087;51.062;3.754;2022-09-09T01:01:39;6.85;;;1.80;;
32697;SDS011;19087;51.062;3.754;2022-09-09T01:04:08;4.53;;;1.52;;
32697;SDS011;19087;51.062;3.754;2022-09-09T01:06:41;7.00;;;2.55;;
32697;SDS011;19087;51.062;3.754;2022-09-09T01:12:12;6.55;;;1.92;;
32697;SDS011;19087;51.062;3.754;2022-09-09T01:14:48;5.22;;;1.50;;
32697;SDS011;19087;51.062;3.754;2022-09-09T01:17:19;8.38;;;1.75;;
32697;SDS011;19087;51.062;3.754;2022-09-09T01:20:12;6.50;;;1.85;;
32697;SDS011;19087;51.062;3.754;2022-09-09T01:22:37;6.37;;;2.67;;
32697;SDS011;19087;51.062;3.754;2022-09-09T01:28:29;9.63;;;2.42;;
32697;SDS011;19087;51.062;3.754;2022-09-09T01:31:00;10.07;;;2.00;;
32697;SDS011;19087;51.062;3.754;2022-09-09T01:33:27;10.25;;;2.90;;
32697;SDS011;19087;51.062;3.754;2022-09-09T01:36:04;8.05;;;1.90;;
32697;SDS011;19087;51.062;3.754;2022-09-09T01:38:38;6.75;;;1.95;;
32697;SDS011;19087;51.062;3.754;2022-09-09T01:41:05;8.48;;;2.53;;
32697;SDS011;19087;51.062;3.754;2022-09-09T01:43:31;7.78;;;1.67;;
32697;SDS011;19087;51.062;3.754;2022-09-09T01:45:58;9.15;;;1.80;;
32697;SDS011;19087;51.062;3.754;2022-09-09T01:48:26;10.07;;;1.90;;
32697;SDS011;19087;51.062;3.754;2022-09-09T01:50:53;3.67;;;1.58;;
32697;SDS011;19087;51.062;3.754;2022-09-09T01:53:19;5.55;;;1.98;;
32697;SDS011;19087;51.062;3.754;2022-09-09T01:56:07;5.70;;;2.13;;
32697;SDS011;19087;51.062;3.754;2022-09-09T02:07:40;10.88;;;3.60;;
32697;SDS011;19087;51.062;3.754;2022-09-09T02:10:09;12.93;;;1.92;;
32697;SDS011;19087;51.062;3.754;2022-09-09T02:12:46;8.13;;;1.90;;
32697;SDS011;19087;51.062;3.754;2022-09-09T02:16:17;8.35;;;2.38;;
32697;SDS011;19087;51.062;3.754;2022-09-09T02:18:18;8.05;;;2.00;;
32697;SDS011;19087;51.062;3.754;2022-09-09T02:21:11;7.32;;;2.05;;
32697;SDS011;19087;51.062;3.754;2022-09-09T02:23:39;10.52;;;2.10;;
32697;SDS011;19087;51.062;3.754;2022-09-09T02:26:07;8.15;;;2.42;;
32697;SDS011;19087;51.062;3.754;2022-09-09T02:28:35;8.40;;;1.85;;
32697;SDS011;19087;51.062;3.754;2022-09-09T02:31:03;11.40;;;2.63;;
32697;SDS011;19087;51.062;3.754;2022-09-09T02:33:33;6.45;;;2.00;;
32697;SDS011;19087;51.062;3.754;2022-09-09T02:36:02;11.77;;;2.78;;
32697;SDS011;19087;51.062;3.754;2022-09-09T02:38:33;8.05;;;2.30;;
32697;SDS011;19087;51.062;3.754;2022-09-09T02:41:02;12.02;;;2.17;;
32697;SDS011;19087;51.062;3.754;2022-09-09T02:43:32;10.85;;;2.17;;
32697;SDS011;19087;51.062;3.754;2022-09-09T02:48:33;20.13;;;2.88;;
32697;SDS011;19087;51.062;3.754;2022-09-09T02:53:57;11.95;;;2.83;;
32697;SDS011;19087;51.062;3.754;2022-09-09T02:56:25;9.55;;;2.58;;
32697;SDS011;19087;51.062;3.754;2022-09-09T02:58:55;15.55;;;3.00;;
32697;SDS011;19087;51.062;3.754;2022-09-09T03:01:21;14.18;;;2.55;;
32697;SDS011;19087;51.062;3.754;2022-09-09T03:03:47;8.82;;;2.60;;
32697;SDS011;19087;51.062;3.754;2022-09-09T03:06:13;8.30;;;2.30;;
32697;SDS011;19087;51.062;3.754;2022-09-09T03:08:40;15.73;;;3.72;;
32697;SDS011;19087;51.062;3.754;2022-09-09T03:11:07;7.78;;;2.55;;
32697;SDS011;19087;51.062;3.754;2022-09-09T03:13:34;11.48;;;2.90;;
32697;SDS011;19087;51.062;3.754;2022-09-09T03:15:59;6.60;;;2.10;;
32697;SDS011;19087;51.062;3.754;2022-09-09T03:18:25;14.43;;;2.63;;
32697;SDS011;19087;51.062;3.754;2022-09-09T03:20:51;18.98;;;3.72;;
32697;SDS011;19087;51.062;3.754;2022-09-09T03:23:16;14.48;;;2.80;;
32697;SDS011;19087;51.062;3.754;2022-09-09T03:25:48;14.18;;;3.03;;
32697;SDS011;19087;51.062;3.754;2022-09-09T03:28:15;16.55;;;2.85;;
32697;SDS011;19087;51.062;3.754;2022-09-09T03:30:40;13.38;;;2.60;;
32697;SDS011;19087;51.062;3.754;2022-09-09T03:33:06;12.05;;;3.28;;
32697;SDS011;19087;51.062;3.754;2022-09-09T03:35:32;16.00;;;2.60;;
32697;SDS011;19087;51.062;3.754;2022-09-09T03:37:57;11.77;;;3.40;;
32697;SDS011;19087;51.062;3.754;2022-09-09T03:40:23;16.27;;;3.33;;
32697;SDS011;19087;51.062;3.754;2022-09-09T03:42:49;12.98;;;3.63;;
32697;SDS011;19087;51.062;3.754;2022-09-09T03:45:14;13.15;;;2.67;;
32697;SDS011;19087;51.062;3.754;2022-09-09T03:47:40;11.88;;;2.17;;
32697;SDS011;19087;51.062;3.754;2022-09-09T03:50:06;10.90;;;2.80;;
32697;SDS011;19087;51.062;3.754;2022-09-09T03:52:37;13.93;;;2.83;;
32697;SDS011;19087;51.062;3.754;2022-09-09T03:55:04;10.35;;;2.75;;
32697;SDS011;19087;51.062;3.754;2022-09-09T03:57:31;15.98;;;2.80;;
32697;SDS011;19087;51.062;3.754;2022-09-09T03:59:59;15.43;;;2.58;;
32697;SDS011;19087;51.062;3.754;2022-09-09T04:02:28;13.65;;;2.97;;
32697;SDS011;19087;51.062;3.754;2022-09-09T04:04:53;16.33;;;3.55;;
32697;SDS011;19087;51.062;3.754;2022-09-09T04:07:19;17.75;;;3.83;;
32697;SDS011;19087;51.062;3.754;2022-09-09T04:09:45;19.05;;;3.83;;
32697;SDS011;19087;51.062;3.754;2022-09-09T04:12:10;14.32;;;3.50;;
32697;SDS011;19087;51.062;3.754;2022-09-09T04:14:38;14.38;;;3.17;;
32697;SDS011;19087;51.062;3.754;2022-09-09T04:17:04;10.50;;;2.75;;
32697;SDS011;19087;51.062;3.754;2022-09-09T04:19:31;17.02;;;3.38;;
32697;SDS011;19087;51.062;3.754;2022-09-09T04:21:57;17.17;;;2.75;;
32697;SDS011;19087;51.062;3.754;2022-09-09T04:24:24;15.38;;;2.78;;
32697;SDS011;19087;51.062;3.754;2022-09-09T04:26:49;10.70;;;2.97;;
32697;SDS011;19087;51.062;3.754;2022-09-09T04:29:15;16.85;;;3.15;;
32697;SDS011;19087;51.062;3.754;2022-09-09T04:31:41;15.68;;;2.97;;
32697;SDS011;19087;51.062;3.754;2022-09-09T04:34:07;18.58;;;3.67;;
32697;SDS011;19087;51.062;3.754;2022-09-09T04:36:34;17.85;;;2.83;;
32697;SDS011;19087;51.062;3.754;2022-09-09T04:39:00;11.40;;;2.88;;
32697;SDS011;19087;51.062;3.754;2022-09-09T04:41:26;17.60;;;2.85;;
32697;SDS011;19087;51.062;3.754;2022-09-09T04:43:53;13.98;;;3.33;;
32697;SDS011;19087;51.062;3.754;2022-09-09T04:46:20;13.88;;;2.92;;
32697;SDS011;19087;51.062;3.754;2022-09-09T04:48:48;12.60;;;3.35;;
32697;SDS011;19087;51.062;3.754;2022-09-09T04:51:17;11.27;;;3.20;;
32697;SDS011;19087;51.062;3.754;2022-09-09T04:53:44;19.65;;;3.28;;
32697;SDS011;19087;51.062;3.754;2022-09-09T04:56:12;14.80;;;3.60;;
32697;SDS011;19087;51.062;3.754;2022-09-09T04:58:40;15.40;;;3.28;;
32697;SDS011;19087;51.062;3.754;2022-09-09T05:01:18;12.15;;;2.55;;
32697;SDS011;19087;51.062;3.754;2022-09-09T05:03:46;17.55;;;3.25;;
32697;SDS011;19087;51.062;3.754;2022-09-09T05:06:16;11.93;;;3.25;;
32697;SDS011;19087;51.062;3.754;2022-09-09T05:08:43;19.63;;;3.63;;
32697;SDS011;19087;51.062;3.754;2022-09-09T05:11:17;16.83;;;3.17;;
32697;SDS011;19087;51.062;3.754;2022-09-09T05:13:51;15.25;;;2.95;;
32697;SDS011;19087;51.062;3.754;2022-09-09T05:16:17;13.00;;;3.22;;
32697;SDS011;19087;51.062;3.754;2022-09-09T05:18:44;22.88;;;3.28;;
32697;SDS011;19087;51.062;3.754;2022-09-09T05:21:11;11.43;;;3.47;;
32697;SDS011;19087;51.062;3.754;2022-09-09T05:23:38;18.73;;;3.47;;
32697;SDS011;19087;51.062;3.754;2022-09-09T05:26:04;14.50;;;3.40;;
32697;SDS011;19087;51.062;3.754;2022-09-09T05:28:33;14.00;;;4.00;;
32697;SDS011;19087;51.062;3.754;2022-09-09T05:31:02;17.38;;;3.80;;
32697;SDS011;19087;51.062;3.754;2022-09-09T05:33:34;13.18;;;3.15;;
32697;SDS011;19087;51.062;3.754;2022-09-09T05:36:10;11.57;;;2.83;;
32697;SDS011;19087;51.062;3.754;2022-09-09T05:38:42;12.35;;;2.90;;
32697;SDS011;19087;51.062;3.754;2022-09-09T05:41:11;16.88;;;3.28;;
32697;SDS011;19087;51.062;3.754;2022-09-09T05:43:38;9.18;;;3.58;;
32697;SDS011;19087;51.062;3.754;2022-09-09T05:46:08;16.27;;;2.63;;
32697;SDS011;19087;51.062;3.754;2022-09-09T05:48:37;7.93;;;2.53;;
32697;SDS011;19087;51.062;3.754;2022-09-09T05:51:04;15.32;;;3.00;;
32697;SDS011;19087;51.062;3.754;2022-09-09T05:53:32;17.38;;;3.35;;
32697;SDS011;19087;51.062;3.754;2022-09-09T05:56:05;17.45;;;3.15;;
32697;SDS011;19087;51.062;3.754;2022-09-09T05:58:35;13.85;;;3.25;;
32697;SDS011;19087;51.062;3.754;2022-09-09T06:03:31;14.23;;;2.83;;
32697;SDS011;19087;51.062;3.754;2022-09-09T06:06:02;16.38;;;3.13;;
32697;SDS011;19087;51.062;3.754;2022-09-09T06:08:33;13.93;;;2.83;;
32697;SDS011;19087;51.062;3.754;2022-09-09T06:11:05;17.10;;;2.92;;
32697;SDS011;19087;51.062;3.754;2022-09-09T06:13:33;16.17;;;2.90;;
32697;SDS011;19087;51.062;3.754;2022-09-09T06:16:00;16.30;;;3.08;;
32697;SDS011;19087;51.062;3.754;2022-09-09T06:18:26;18.75;;;3.53;;
32697;SDS011;19087;51.062;3.754;2022-09-09T06:21:01;15.02;;;3.03;;
32697;SDS011;19087;51.062;3.754;2022-09-09T06:23:29;12.95;;;2.83;;
32697;SDS011;19087;51.062;3.754;2022-09-09T06:26:06;12.90;;;3.33;;
32697;SDS011;19087;51.062;3.754;2022-09-09T06:28:34;16.48;;;3.20;;
32697;SDS011;19087;51.062;3.754;2022-09-09T06:31:01;20.40;;;3.53;;
32697;SDS011;19087;51.062;3.754;2022-09-09T06:33:33;13.70;;;3.15;;
32697;SDS011;19087;51.062;3.754;2022-09-09T06:36:00;15.98;;;2.88;;
32697;SDS011;19087;51.062;3.754;2022-09-09T06:38:27;20.02;;;4.43;;
32697;SDS011;19087;51.062;3.754;2022-09-09T06:40:56;24.38;;;3.55;;
32697;SDS011;19087;51.062;3.754;2022-09-09T06:43:27;13.95;;;3.47;;
32697;SDS011;19087;51.062;3.754;2022-09-09T06:45:57;14.35;;;3.13;;
32697;SDS011;19087;51.062;3.754;2022-09-09T06:48:24;15.30;;;3.05;;
32697;SDS011;19087;51.062;3.754;2022-09-09T06:53:31;11.93;;;2.88;;
32697;SDS011;19087;51.062;3.754;2022-09-09T06:55:59;13.35;;;3.17;;
32697;SDS011;19087;51.062;3.754;2022-09-09T06:58:29;11.13;;;2.63;;
32697;SDS011;19087;51.062;3.754;2022-09-09T07:01:07;16.13;;;3.63;;
32697;SDS011;19087;51.062;3.754;2022-09-09T07:03:33;15.90;;;3.55;;
32697;SDS011;19087;51.062;3.754;2022-09-09T07:06:00;12.55;;;3.15;;
32697;SDS011;19087;51.062;3.754;2022-09-09T07:08:26;16.55;;;2.30;;
32697;SDS011;19087;51.062;3.754;2022-09-09T07:10:52;14.00;;;2.72;;
32697;SDS011;19087;51.062;3.754;2022-09-09T07:13:25;9.70;;;2.55;;
32697;SDS011;19087;51.062;3.754;2022-09-09T07:15:52;14.25;;;2.67;;
32697;SDS011;19087;51.062;3.754;2022-09-09T07:18:18;12.30;;;2.55;;
32697;SDS011;19087;51.062;3.754;2022-09-09T07:20:54;18.98;;;3.90;;
32697;SDS011;19087;51.062;3.754;2022-09-09T07:23:21;8.38;;;2.15;;
32697;SDS011;19087;51.062;3.754;2022-09-09T07:25:47;15.35;;;3.25;;
32697;SDS011;19087;51.062;3.754;2022-09-09T07:28:14;11.88;;;2.78;;
32697;SDS011;19087;51.062;3.754;2022-09-09T07:30:40;15.85;;;2.80;;
32697;SDS011;19087;51.062;3.754;2022-09-09T07:33:07;14.35;;;3.30;;
32697;SDS011;19087;51.062;3.754;2022-09-09T07:35:34;11.07;;;2.95;;
32697;SDS011;19087;51.062;3.754;2022-09-09T07:38:02;10.25;;;2.35;;
32697;SDS011;19087;51.062;3.754;2022-09-09T07:40:31;15.13;;;3.15;;
32697;SDS011;19087;51.062;3.754;2022-09-09T07:42:58;8.15;;;2.45;;
32697;SDS011;19087;51.062;3.754;2022-09-09T07:45:24;10.52;;;2.88;;
32697;SDS011;19087;51.062;3.754;2022-09-09T07:47:53;13.27;;;2.85;;
32697;SDS011;19087;51.062;3.754;2022-09-09T07:50:20;9.52;;;2.63;;
32697;SDS011;19087;51.062;3.754;2022-09-09T07:52:46;9.25;;;2.20;;
32697;SDS011;19087;51.062;3.754;2022-09-09T07:55:11;12.63;;;3.17;;
32697;SDS011;19087;51.062;3.754;2022-09-09T07:57:37;9.68;;;2.28;;
32697;SDS011;19087;51.062;3.754;2022-09-09T08:00:03;9.27;;;1.90;;
32697;SDS011;19087;51.062;3.754;2022-09-09T08:02:30;10.55;;;2.20;;
32697;SDS011;19087;51.062;3.754;2022-09-09T08:04:55;10.40;;;3.00;;
32697;SDS011;19087;51.062;3.754;2022-09-09T08:07:21;10.98;;;2.85;;
32697;SDS011;19087;51.062;3.754;2022-09-09T08:09:48;15.27;;;3.42;;
32697;SDS011;19087;51.062;3.754;2022-09-09T08:12:14;10.60;;;2.53;;
32697;SDS011;19087;51.062;3.754;2022-09-09T08:14:40;15.50;;;3.80;;
32697;SDS011;19087;51.062;3.754;2022-09-09T08:17:06;13.43;;;2.88;;
32697;SDS011;19087;51.062;3.754;2022-09-09T08:19:33;21.35;;;3.53;;
32697;SDS011;19087;51.062;3.754;2022-09-09T08:22:00;14.38;;;2.47;;
32697;SDS011;19087;51.062;3.754;2022-09-09T08:24:27;9.02;;;2.13;;
32697;SDS011;19087;51.062;3.754;2022-09-09T08:26:53;13.65;;;3.05;;
32697;SDS011;19087;51.062;3.754;2022-09-09T08:29:21;12.82;;;2.90;;
32697;SDS011;19087;51.062;3.754;2022-09-09T08:31:47;12.07;;;3.25;;
32697;SDS011;19087;51.062;3.754;2022-09-09T08:34:14;10.43;;;2.40;;
32697;SDS011;19087;51.062;3.754;2022-09-09T08:36:41;8.00;;;1.80;;
32697;SDS011;19087;51.062;3.754;2022-09-09T08:39:09;9.27;;;3.33;;
32697;SDS011;19087;51.062;3.754;2022-09-09T08:47:28;13.88;;;3.15;;
32697;SDS011;19087;51.062;3.754;2022-09-09T08:52:29;7.50;;;2.10;;
32697;SDS011;19087;51.062;3.754;2022-09-09T08:57:51;10.27;;;2.60;;
32697;SDS011;19087;51.062;3.754;2022-09-09T09:00:19;10.50;;;2.45;;
32697;SDS011;19087;51.062;3.754;2022-09-09T09:02:53;7.15;;;1.85;;
32697;SDS011;19087;51.062;3.754;2022-09-09T09:05:37;13.55;;;2.80;;
32697;SDS011;19087;51.062;3.754;2022-09-09T09:10:48;11.48;;;2.50;;
32697;SDS011;19087;51.062;3.754;2022-09-09T09:15:58;8.45;;;2.38;;
32697;SDS011;19087;51.062;3.754;2022-09-09T09:18:31;11.27;;;2.45;;
32697;SDS011;19087;51.062;3.754;2022-09-09T09:23:34;8.98;;;2.35;;
32697;SDS011;19087;51.062;3.754;2022-09-09T09:26:06;7.00;;;2.10;;
32697;SDS011;19087;51.062;3.754;2022-09-09T09:28:36;6.25;;;1.70;;
32697;SDS011;19087;51.062;3.754;2022-09-09T09:31:06;10.93;;;2.55;;
32697;SDS011;19087;51.062;3.754;2022-09-09T09:36:14;7.10;;;1.85;;
32697;SDS011;19087;51.062;3.754;2022-09-09T09:41:29;7.78;;;1.85;;
32697;SDS011;19087;51.062;3.754;2022-09-09T09:46:21;6.80;;;2.03;;
32697;SDS011;19087;51.062;3.754;2022-09-09T09:48:58;3.80;;;1.50;;
32697;SDS011;19087;51.062;3.754;2022-09-09T09:51:25;10.20;;;2.30;;
32697;SDS011;19087;51.062;3.754;2022-09-09T09:53:52;7.03;;;1.70;;
32697;SDS011;19087;51.062;3.754;2022-09-09T09:56:28;9.15;;;2.20;;
32697;SDS011;19087;51.062;3.754;2022-09-09T09:58:54;4.53;;;1.27;;
32697;SDS011;19087;51.062;3.754;2022-09-09T10:01:22;8.45;;;2.35;;
32697;SDS011;19087;51.062;3.754;2022-09-09T10:04:02;6.38;;;1.70;;
32697;SDS011;19087;51.062;3.754;2022-09-09T10:06:41;20.48;;;2.15;;
32697;SDS011;19087;51.062;3.754;2022-09-09T10:09:26;7.72;;;2.10;;
32697;SDS011;19087;51.062;3.754;2022-09-09T10:18:03;11.55;;;3.03;;
32697;SDS011;19087;51.062;3.754;2022-09-09T10:37:46;8.70;;;1.60;;
32697;SDS011;19087;51.062;3.754;2022-09-09T10:51:35;5.90;;;2.03;;
32697;SDS011;19087;51.062;3.754;2022-09-09T10:56:58;9.18;;;1.45;;
32697;SDS011;19087;51.062;3.754;2022-09-09T10:59:29;6.00;;;1.57;;
32697;SDS011;19087;51.062;3.754;2022-09-09T11:02:00;4.18;;;1.50;;
32697;SDS011;19087;51.062;3.754;2022-09-09T11:04:40;3.88;;;1.30;;
32697;SDS011;19087;51.062;3.754;2022-09-09T11:07:16;7.93;;;2.05;;
32697;SDS011;19087;51.062;3.754;2022-09-09T11:09:52;6.82;;;1.60;;
32697;SDS011;19087;51.062;3.754;2022-09-09T11:12:21;6.07;;;1.75;;
32697;SDS011;19087;51.062;3.754;2022-09-09T11:14:51;10.50;;;1.83;;
32697;SDS011;19087;51.062;3.754;2022-09-09T11:17:26;6.45;;;1.35;;
32697;SDS011;19087;51.062;3.754;2022-09-09T11:20:00;6.47;;;1.77;;
32697;SDS011;19087;51.062;3.754;2022-09-09T11:30:22;8.27;;;1.88;;
32697;SDS011;19087;51.062;3.754;2022-09-09T11:40:44;3.80;;;1.35;;
32697;SDS011;19087;51.062;3.754;2022-09-09T11:43:13;3.60;;;1.35;;
32697;SDS011;19087;51.062;3.754;2022-09-09T11:45:50;2.22;;;0.85;;
32697;SDS011;19087;51.062;3.754;2022-09-09T11:48:23;8.88;;;2.03;;
32697;SDS011;19087;51.062;3.754;2022-09-09T11:51:00;3.65;;;1.20;;
32697;SDS011;19087;51.062;3.754;2022-09-09T11:53:27;3.92;;;1.10;;
32697;SDS011;19087;51.062;3.754;2022-09-09T11:56:28;4.55;;;0.93;;
32697;SDS011;19087;51.062;3.754;2022-09-09T11:59:33;4.05;;;1.35;;
32697;SDS011;19087;51.062;3.754;2022-09-09T12:01:48;6.85;;;1.55;;
32697;SDS011;19087;51.062;3.754;2022-09-09T12:04:27;3.13;;;1.17;;
32697;SDS011;19087;51.062;3.754;2022-09-09T12:12:47;5.15;;;1.52;;
32697;SDS011;19087;51.062;3.754;2022-09-09T12:17:44;4.32;;;1.40;;
32697;SDS011;19087;51.062;3.754;2022-09-09T12:23:00;7.30;;;1.55;;
32697;SDS011;19087;51.062;3.754;2022-09-09T12:28:22;5.13;;;1.30;;
32697;SDS011;19087;51.062;3.754;2022-09-09T12:34:39;4.45;;;1.60;;
32697;SDS011;19087;51.062;3.754;2022-09-09T12:37:12;4.65;;;1.17;;
32697;SDS011;19087;51.062;3.754;2022-09-09T12:42:30;2.78;;;1.25;;
32697;SDS011;19087;51.062;3.754;2022-09-09T12:45:01;5.43;;;1.13;;
32697;SDS011;19087;51.062;3.754;2022-09-09T12:47:34;7.10;;;1.25;;
32697;SDS011;19087;51.062;3.754;2022-09-09T12:50:11;6.40;;;1.23;;
32697;SDS011;19087;51.062;3.754;2022-09-09T12:52:46;4.57;;;1.40;;
32697;SDS011;19087;51.062;3.754;2022-09-09T12:55:18;4.13;;;1.52;;
32697;SDS011;19087;51.062;3.754;2022-09-09T12:57:51;5.20;;;1.33;;
32697;SDS011;19087;51.062;3.754;2022-09-09T13:00:18;5.88;;;1.15;;
32697;SDS011;19087;51.062;3.754;2022-09-09T13:02:50;3.65;;;1.13;;
32697;SDS011;19087;51.062;3.754;2022-09-09T13:05:19;8.07;;;1.60;;
32697;SDS011;19087;51.062;3.754;2022-09-09T13:07:47;4.47;;;1.45;;
32697;SDS011;19087;51.062;3.754;2022-09-09T13:10:13;3.58;;;1.63;;
32697;SDS011;19087;51.062;3.754;2022-09-09T13:12:46;5.93;;;1.27;;
32697;SDS011;19087;51.062;3.754;2022-09-09T13:15:19;8.85;;;2.33;;
32697;SDS011;19087;51.062;3.754;2022-09-09T13:17:53;7.07;;;1.73;;
32697;SDS011;19087;51.062;3.754;2022-09-09T13:20:21;6.47;;;1.13;;
32697;SDS011;19087;51.062;3.754;2022-09-09T13:22:49;3.50;;;1.42;;
32697;SDS011;19087;51.062;3.754;2022-09-09T13:27:58;7.13;;;1.92;;
32697;SDS011;19087;51.062;3.754;2022-09-09T13:30:31;7.93;;;1.85;;
32697;SDS011;19087;51.062;3.754;2022-09-09T13:33:02;8.88;;;1.63;;
32697;SDS011;19087;51.062;3.754;2022-09-09T13:35:30;8.65;;;1.80;;
32697;SDS011;19087;51.062;3.754;2022-09-09T13:37:56;5.88;;;1.65;;
32697;SDS011;19087;51.062;3.754;2022-09-09T13:40:23;5.57;;;1.20;;
32697;SDS011;19087;51.062;3.754;2022-09-09T13:42:56;3.28;;;1.45;;
32697;SDS011;19087;51.062;3.754;2022-09-09T13:45:24;5.10;;;1.45;;
32697;SDS011;19087;51.062;3.754;2022-09-09T13:47:53;5.32;;;1.27;;
32697;SDS011;19087;51.062;3.754;2022-09-09T13:50:25;6.30;;;1.38;;
32697;SDS011;19087;51.062;3.754;2022-09-09T13:52:53;5.47;;;1.48;;
32697;SDS011;19087;51.062;3.754;2022-09-09T13:55:21;5.65;;;1.85;;
32697;SDS011;19087;51.062;3.754;2022-09-09T13:58:01;5.03;;;1.60;;
32697;SDS011;19087;51.062;3.754;2022-09-09T14:00:33;4.85;;;1.27;;
32697;SDS011;19087;51.062;3.754;2022-09-09T14:02:59;4.57;;;1.70;;
32697;SDS011;19087;51.062;3.754;2022-09-09T14:05:27;5.95;;;1.42;;
32697;SDS011;19087;51.062;3.754;2022-09-09T14:07:54;6.47;;;1.67;;
32697;SDS011;19087;51.062;3.754;2022-09-09T14:10:20;4.15;;;1.17;;
32697;SDS011;19087;51.062;3.754;2022-09-09T14:12:47;4.85;;;1.10;;
32697;SDS011;19087;51.062;3.754;2022-09-09T14:15:13;3.30;;;1.17;;
32697;SDS011;19087;51.062;3.754;2022-09-09T14:17:39;3.78;;;1.23;;
32697;SDS011;19087;51.062;3.754;2022-09-09T14:20:05;5.20;;;1.30;;
32697;SDS011;19087;51.062;3.754;2022-09-09T14:22:34;4.68;;;1.35;;
32697;SDS011;19087;51.062;3.754;2022-09-09T14:25:01;3.70;;;1.40;;
32697;SDS011;19087;51.062;3.754;2022-09-09T14:27:27;5.18;;;1.20;;
32697;SDS011;19087;51.062;3.754;2022-09-09T14:29:53;4.45;;;1.23;;
32697;SDS011;19087;51.062;3.754;2022-09-09T14:32:19;6.43;;;1.10;;
32697;SDS011;19087;51.062;3.754;2022-09-09T14:34:46;7.20;;;2.33;;
32697;SDS011;19087;51.062;3.754;2022-09-09T14:37:14;3.33;;;1.70;;
32697;SDS011;19087;51.062;3.754;2022-09-09T14:39:41;7.35;;;2.35;;
32697;SDS011;19087;51.062;3.754;2022-09-09T14:42:09;5.38;;;2.00;;
32697;SDS011;19087;51.062;3.754;2022-09-09T14:44:37;3.90;;;1.52;;
32697;SDS011;19087;51.062;3.754;2022-09-09T14:47:04;4.00;;;1.83;;
32697;SDS011;19087;51.062;3.754;2022-09-09T14:49:30;3.50;;;1.40;;
32697;SDS011;19087;51.062;3.754;2022-09-09T14:51:56;7.28;;;1.70;;
32697;SDS011;19087;51.062;3.754;2022-09-09T14:54:22;2.40;;;1.08;;
32697;SDS011;19087;51.062;3.754;2022-09-09T14:56:51;3.00;;;1.05;;
32697;SDS011;19087;51.062;3.754;2022-09-09T14:59:16;1.67;;;0.88;;
32697;SDS011;19087;51.062;3.754;2022-09-09T15:01:42;4.20;;;1.13;;
32697;SDS011;19087;51.062;3.754;2022-09-09T15:04:10;3.45;;;1.50;;
32697;SDS011;19087;51.062;3.754;2022-09-09T15:06:40;2.13;;;1.00;;
32697;SDS011;19087;51.062;3.754;2022-09-09T15:09:07;4.25;;;1.40;;
32697;SDS011;19087;51.062;3.754;2022-09-09T15:11:34;4.50;;;1.35;;
32697;SDS011;19087;51.062;3.754;2022-09-09T15:14:02;4.60;;;1.42;;
32697;SDS011;19087;51.062;3.754;2022-09-09T15:16:29;6.25;;;2.13;;
32697;SDS011;19087;51.062;3.754;2022-09-09T15:18:57;7.43;;;1.70;;
32697;SDS011;19087;51.062;3.754;2022-09-09T15:21:24;7.53;;;1.17;;
32697;SDS011;19087;51.062;3.754;2022-09-09T15:23:52;4.90;;;1.70;;
32697;SDS011;19087;51.062;3.754;2022-09-09T15:26:18;5.43;;;1.25;;
32697;SDS011;19087;51.062;3.754;2022-09-09T15:28:46;3.53;;;1.05;;
32697;SDS011;19087;51.062;3.754;2022-09-09T15:31:16;6.32;;;1.77;;
32697;SDS011;19087;51.062;3.754;2022-09-09T15:33:50;7.00;;;1.55;;
32697;SDS011;19087;51.062;3.754;2022-09-09T15:38:43;8.73;;;2.08;;
32697;SDS011;19087;51.062;3.754;2022-09-09T15:41:09;12.20;;;2.05;;
32697;SDS011;19087;51.062;3.754;2022-09-09T15:43:35;5.43;;;2.25;;
32697;SDS011;19087;51.062;3.754;2022-09-09T15:46:05;11.18;;;1.48;;
32697;SDS011;19087;51.062;3.754;2022-09-09T15:48:43;7.47;;;1.70;;
32697;SDS011;19087;51.062;3.754;2022-09-09T15:51:10;7.72;;;2.58;;
32697;SDS011;19087;51.062;3.754;2022-09-09T15:53:39;9.70;;;1.95;;
32697;SDS011;19087;51.062;3.754;2022-09-09T15:56:05;5.25;;;1.65;;
32697;SDS011;19087;51.062;3.754;2022-09-09T15:58:33;4.13;;;1.48;;
32697;SDS011;19087;51.062;3.754;2022-09-09T16:01:04;4.80;;;1.85;;
32697;SDS011;19087;51.062;3.754;2022-09-09T16:03:33;2.83;;;1.13;;
32697;SDS011;19087;51.062;3.754;2022-09-09T16:06:00;5.07;;;1.60;;
32697;SDS011;19087;51.062;3.754;2022-09-09T16:08:37;7.70;;;1.98;;
32697;SDS011;19087;51.062;3.754;2022-09-09T16:11:09;10.40;;;1.73;;
32697;SDS011;19087;51.062;3.754;2022-09-09T16:13:42;5.07;;;1.63;;
32697;SDS011;19087;51.062;3.754;2022-09-09T16:16:10;3.80;;;1.58;;
32697;SDS011;19087;51.062;3.754;2022-09-09T16:18:39;5.68;;;1.55;;
32697;SDS011;19087;51.062;3.754;2022-09-09T16:21:07;8.43;;;2.30;;
32697;SDS011;19087;51.062;3.754;2022-09-09T16:23:37;6.10;;;1.90;;
32697;SDS011;19087;51.062;3.754;2022-09-09T16:26:04;5.25;;;2.30;;
32697;SDS011;19087;51.062;3.754;2022-09-09T16:28:30;4.10;;;1.75;;
32697;SDS011;19087;51.062;3.754;2022-09-09T16:30:56;8.32;;;2.83;;
32697;SDS011;19087;51.062;3.754;2022-09-09T16:33:24;6.13;;;2.00;;
32697;SDS011;19087;51.062;3.754;2022-09-09T16:35:51;6.35;;;2.60;;
32697;SDS011;19087;51.062;3.754;2022-09-09T16:38:17;8.27;;;2.97;;
32697;SDS011;19087;51.062;3.754;2022-09-09T16:40:43;5.55;;;2.22;;
32697;SDS011;19087;51.062;3.754;2022-09-09T16:43:08;6.95;;;2.88;;
32697;SDS011;19087;51.062;3.754;2022-09-09T16:45:41;6.03;;;3.50;;
32697;SDS011;19087;51.062;3.754;2022-09-09T16:56:42;8.15;;;3.22;;
32697;SDS011;19087;51.062;3.754;2022-09-09T16:59:19;12.45;;;4.20;;
32697;SDS011;19087;51.062;3.754;2022-09-09T17:01:46;8.18;;;4.15;;
32697;SDS011;19087;51.062;3.754;2022-09-09T17:04:20;10.30;;;3.22;;
32697;SDS011;19087;51.062;3.754;2022-09-09T17:06:54;12.73;;;3.92;;
32697;SDS011;19087;51.062;3.754;2022-09-09T17:09:28;6.47;;;3.80;;
32697;SDS011;19087;51.062;3.754;2022-09-09T17:11:54;10.65;;;3.42;;
32697;SDS011;19087;51.062;3.754;2022-09-09T17:14:22;12.55;;;3.42;;
32697;SDS011;19087;51.062;3.754;2022-09-09T17:16:48;10.38;;;2.72;;
32697;SDS011;19087;51.062;3.754;2022-09-09T17:19:15;11.80;;;3.33;;
32697;SDS011;19087;51.062;3.754;2022-09-09T17:21:41;15.20;;;4.28;;
32697;SDS011;19087;51.062;3.754;2022-09-09T17:24:08;5.03;;;1.85;;
32697;SDS011;19087;51.062;3.754;2022-09-09T17:26:33;9.65;;;2.75;;